Time;durP1;ratioP1;P1;durP2;ratioP2;P2;SDS_P1;SDS_P2;PMS_P1;PMS_P2;Temp;Humidity;BMP_temperature;BMP_pressure;BME280_temperature;BME280_humidity;BME280_pressure;Samples;Min_cycle;Max_cycle;Signal;HPM_P1;HPM_P2
2024/02/05 00:01:07;;;;;;;0.95;0.60;;;;;;;;;;5030230;28;20115;-69
2024/02/05 00:03:35;;;;;;;0.88;0.70;;;;;;;;;;5030114;28;20052;-67
2024/02/05 00:06:05;;;;;;;1.80;0.80;;;;;;;;;;5030312;28;20389;-66
2024/02/05 00:08:33;;;;;;;0.85;0.60;;;;;;;;;;5029838;28;20042;-68
2024/02/05 00:11:01;;;;;;;2.13;0.60;;;;;;;;;;5030107;28;20049;-67
2024/02/05 00:13:31;;;;;;;1.17;0.70;;;;;;;;;;5028889;28;20321;-67
2024/02/05 00:16:00;;;;;;;3.05;1.00;;;;;;;;;;5029650;28;20044;-67
2024/02/05 00:18:28;;;;;;;1.35;0.70;;;;;;;;;;5029587;28;20052;-67
2024/02/05 00:20:57;;;;;;;1.88;0.60;;;;;;;;;;5029765;28;20144;-67
2024/02/05 00:23:25;;;;;;;1.08;0.82;;;;;;;;;;5028776;28;20142;-67
2024/02/05 00:25:53;;;;;;;1.08;0.70;;;;;;;;;;5030641;28;20054;-67
2024/02/05 00:28:22;;;;;;;1.05;0.73;;;;;;;;;;5028624;28;20057;-67
2024/02/05 00:30:52;;;;;;;2.05;0.63;;;;;;;;;;5030772;28;20046;-67
2024/02/05 00:33:21;;;;;;;2.15;0.70;;;;;;;;;;5024473;28;20054;-67
2024/02/05 00:35:50;;;;;;;0.60;0.60;;;;;;;;;;5030088;28;20057;-67
2024/02/05 00:38:18;;;;;;;0.80;0.60;;;;;;;;;;5028434;28;20037;-68
2024/02/05 00:40:47;;;;;;;1.17;0.50;;;;;;;;;;5030174;28;20415;-67
2024/02/05 00:43:16;;;;;;;0.85;0.80;;;;;;;;;;5029354;28;20041;-67
2024/02/05 00:45:44;;;;;;;0.88;0.60;;;;;;;;;;5029812;28;20143;-67
2024/02/05 00:48:14;;;;;;;1.23;0.93;;;;;;;;;;5027823;28;20367;-67
2024/02/05 00:50:43;;;;;;;1.65;1.02;;;;;;;;;;5028928;28;20433;-68
2024/02/05 00:53:11;;;;;;;1.35;0.70;;;;;;;;;;5031201;28;20541;-67
2024/02/05 00:55:39;;;;;;;0.60;0.60;;;;;;;;;;5029740;28;20045;-67
2024/02/05 00:58:08;;;;;;;0.60;0.60;;;;;;;;;;5029155;28;20496;-69
2024/02/05 01:00:36;;;;;;;0.80;0.60;;;;;;;;;;5028499;28;20073;-67
2024/02/05 01:03:05;;;;;;;1.05;0.70;;;;;;;;;;5028743;28;20045;-68
2024/02/05 01:05:35;;;;;;;1.45;0.80;;;;;;;;;;5028888;28;20049;-66
2024/02/05 01:08:04;;;;;;;1.15;0.80;;;;;;;;;;5027614;28;20512;-67
2024/02/05 01:10:33;;;;;;;0.60;0.52;;;;;;;;;;5028990;28;20053;-67
2024/02/05 01:13:01;;;;;;;1.10;0.80;;;;;;;;;;5029445;28;20053;-68
2024/02/05 01:15:30;;;;;;;1.48;0.82;;;;;;;;;;5025577;28;20140;-68
2024/02/05 01:17:58;;;;;;;2.13;0.93;;;;;;;;;;5025997;28;20049;-68
2024/02/05 01:20:27;;;;;;;1.25;0.80;;;;;;;;;;5026700;28;20498;-70
2024/02/05 01:22:56;;;;;;;1.40;0.95;;;;;;;;;;5029575;28;20502;-69
2024/02/05 01:25:25;;;;;;;1.00;0.70;;;;;;;;;;5028210;28;20046;-69
2024/02/05 01:27:53;;;;;;;1.50;1.10;;;;;;;;;;5022960;28;20121;-69
2024/02/05 01:30:22;;;;;;;1.67;0.90;;;;;;;;;;5028512;28;20049;-67
2024/02/05 01:32:50;;;;;;;2.47;0.90;;;;;;;;;;5027843;28;20045;-69
2024/02/05 01:35:19;;;;;;;0.95;0.82;;;;;;;;;;5030064;28;20055;-69
2024/02/05 01:37:47;;;;;;;2.45;1.08;;;;;;;;;;5025399;28;20127;-70
2024/02/05 01:40:17;;;;;;;2.47;1.00;;;;;;;;;;5027602;28;20448;-69
2024/02/05 01:42:46;;;;;;;2.88;1.00;;;;;;;;;;5026753;28;20049;-69
2024/02/05 01:45:14;;;;;;;2.88;0.80;;;;;;;;;;5027249;28;20071;-67
2024/02/05 01:47:43;;;;;;;2.95;1.20;;;;;;;;;;5027803;28;20054;-68
2024/02/05 01:50:13;;;;;;;1.38;0.80;;;;;;;;;;5026236;28;20417;-67
2024/02/05 01:52:44;;;;;;;2.78;1.05;;;;;;;;;;5026633;28;20399;-67
2024/02/05 01:55:14;;;;;;;1.73;0.93;;;;;;;;;;5029059;28;20058;-67
2024/02/05 01:57:44;;;;;;;1.10;1.00;;;;;;;;;;5027020;28;20049;-70
2024/02/05 02:00:14;;;;;;;3.80;1.10;;;;;;;;;;5026739;28;20127;-69
2024/02/05 02:02:43;;;;;;;3.22;1.27;;;;;;;;;;5025984;28;20042;-67
2024/02/05 02:05:13;;;;;;;1.65;1.20;;;;;;;;;;5028860;28;20111;-67
2024/02/05 02:07:41;;;;;;;1.63;1.20;;;;;;;;;;5028607;28;20049;-66
2024/02/05 02:10:11;;;;;;;3.78;1.10;;;;;;;;;;5027508;28;20049;-66
2024/02/05 02:12:39;;;;;;;2.38;1.25;;;;;;;;;;5023663;28;20127;-67
2024/02/05 02:15:09;;;;;;;1.60;0.98;;;;;;;;;;5025888;28;20429;-70
2024/02/05 02:17:39;;;;;;;2.50;1.25;;;;;;;;;;5023091;28;20057;-70
2024/02/05 02:20:09;;;;;;;3.13;1.27;;;;;;;;;;5024384;28;20137;-67
2024/02/05 02:22:44;;;;;;;2.17;1.15;;;;;;;;;;5023842;28;20967;-70
2024/02/05 02:25:14;;;;;;;1.80;1.40;;;;;;;;;;4998468;28;20466;-70
2024/02/05 02:27:43;;;;;;;2.90;1.23;;;;;;;;;;4992285;28;20100;-73
2024/02/05 02:30:13;;;;;;;2.78;1.10;;;;;;;;;;4994402;28;20503;-69
2024/02/05 02:32:45;;;;;;;4.22;1.40;;;;;;;;;;5017834;28;20143;-67
2024/02/05 02:35:15;;;;;;;4.22;1.52;;;;;;;;;;5027384;28;20056;-68
2024/02/05 02:37:48;;;;;;;2.63;1.30;;;;;;;;;;5017375;28;20128;-69
2024/02/05 02:40:20;;;;;;;4.95;1.50;;;;;;;;;;5023676;28;20541;-70
2024/02/05 02:42:50;;;;;;;2.47;1.40;;;;;;;;;;5026844;28;20072;-67
2024/02/05 02:45:19;;;;;;;1.92;1.58;;;;;;;;;;5029195;28;20478;-67
2024/02/05 02:47:47;;;;;;;2.83;1.40;;;;;;;;;;5024088;28;20667;-67
2024/02/05 02:50:16;;;;;;;2.15;1.42;;;;;;;;;;5026842;28;20041;-69
2024/02/05 02:52:44;;;;;;;2.80;2.25;;;;;;;;;;5023427;28;20057;-68
2024/02/05 02:55:13;;;;;;;4.22;1.42;;;;;;;;;;5026995;28;20057;-67
2024/02/05 02:57:43;;;;;;;3.00;1.50;;;;;;;;;;5026104;28;20467;-66
2024/02/05 03:00:12;;;;;;;4.43;1.27;;;;;;;;;;5027301;28;20056;-67
2024/02/05 03:02:40;;;;;;;1.88;1.40;;;;;;;;;;5025568;28;20607;-68
2024/02/05 03:05:09;;;;;;;2.95;1.13;;;;;;;;;;5028097;28;20065;-67
2024/02/05 03:07:38;;;;;;;3.40;1.20;;;;;;;;;;5025314;28;20479;-69
2024/02/05 03:10:07;;;;;;;8.38;1.55;;;;;;;;;;5026341;28;20142;-66
2024/02/05 03:12:35;;;;;;;3.00;1.25;;;;;;;;;;5026867;28;20057;-66
2024/02/05 03:15:06;;;;;;;1.42;1.30;;;;;;;;;;5026042;28;20372;-67
2024/02/05 03:17:34;;;;;;;1.10;1.00;;;;;;;;;;5026195;28;20490;-68
2024/02/05 03:20:05;;;;;;;2.47;1.05;;;;;;;;;;5026905;28;20048;-66
2024/02/05 03:22:33;;;;;;;4.13;1.42;;;;;;;;;;5024963;28;20234;-71
2024/02/05 03:25:02;;;;;;;1.50;1.20;;;;;;;;;;5027652;28;20103;-67
2024/02/05 03:27:30;;;;;;;2.00;1.00;;;;;;;;;;5033353;28;20061;-67
2024/02/05 03:29:59;;;;;;;2.55;1.40;;;;;;;;;;5024071;28;20135;-69
2024/02/05 03:32:29;;;;;;;3.78;1.50;;;;;;;;;;5029477;28;20099;-67
2024/02/05 03:34:57;;;;;;;3.70;1.48;;;;;;;;;;5030235;28;20126;-66
2024/02/05 03:37:26;;;;;;;4.15;1.50;;;;;;;;;;5029785;28;20056;-66
2024/02/05 03:39:54;;;;;;;2.67;1.35;;;;;;;;;;5029658;28;20061;-66
2024/02/05 03:42:23;;;;;;;5.88;1.17;;;;;;;;;;5030153;28;20328;-66
2024/02/05 03:44:51;;;;;;;3.83;1.48;;;;;;;;;;5029812;28;20075;-66
2024/02/05 03:47:19;;;;;;;3.35;1.48;;;;;;;;;;5028206;28;20045;-66
2024/02/05 03:49:49;;;;;;;4.00;1.63;;;;;;;;;;5029929;28;20529;-68
2024/02/05 03:52:18;;;;;;;2.95;1.30;;;;;;;;;;5032588;28;20069;-70
2024/02/05 03:54:46;;;;;;;2.10;1.30;;;;;;;;;;5018381;28;20068;-70
2024/02/05 03:57:15;;;;;;;2.63;1.35;;;;;;;;;;5025408;28;20494;-67
2024/02/05 03:59:44;;;;;;;2.60;1.42;;;;;;;;;;5031413;28;20053;-66
2024/02/05 04:02:12;;;;;;;4.65;1.73;;;;;;;;;;5029352;28;20505;-71
2024/02/05 04:04:41;;;;;;;4.07;1.67;;;;;;;;;;5025848;28;20478;-67
2024/02/05 04:07:11;;;;;;;4.30;1.58;;;;;;;;;;5030259;28;20124;-67
2024/02/05 04:09:39;;;;;;;3.85;1.73;;;;;;;;;;5026340;28;20064;-67
2024/02/05 04:12:08;;;;;;;3.05;1.90;;;;;;;;;;5030131;28;20542;-68
2024/02/05 04:14:36;;;;;;;2.83;1.35;;;;;;;;;;5029256;28;20556;-66
2024/02/05 04:17:08;;;;;;;2.17;1.30;;;;;;;;;;5029372;28;20096;-67
2024/02/05 04:19:37;;;;;;;5.00;1.42;;;;;;;;;;5027919;28;20053;-68
2024/02/05 04:22:05;;;;;;;6.82;1.77;;;;;;;;;;5028417;28;20126;-67
2024/02/05 04:24:35;;;;;;;1.67;1.27;;;;;;;;;;5028030;28;20046;-67
2024/02/05 04:27:03;;;;;;;1.38;1.02;;;;;;;;;;5029671;28;20080;-68
2024/02/05 04:29:32;;;;;;;1.60;1.50;;;;;;;;;;5028272;28;20107;-67
2024/02/05 04:32:01;;;;;;;2.50;1.20;;;;;;;;;;5027882;28;20049;-67
2024/02/05 04:34:29;;;;;;;2.92;1.35;;;;;;;;;;5028646;28;20053;-68
2024/02/05 04:36:58;;;;;;;3.42;1.27;;;;;;;;;;5029718;28;20482;-68
2024/02/05 04:39:26;;;;;;;2.53;1.00;;;;;;;;;;5029333;28;20068;-67
2024/02/05 04:41:56;;;;;;;4.65;1.33;;;;;;;;;;5029474;28;20537;-66
2024/02/05 04:44:24;;;;;;;1.88;1.20;;;;;;;;;;5026854;28;20049;-69
2024/02/05 04:46:52;;;;;;;1.70;0.88;;;;;;;;;;5026464;28;20045;-70
2024/02/05 04:49:21;;;;;;;4.13;1.20;;;;;;;;;;5028458;28;20576;-68
2024/02/05 04:51:50;;;;;;;3.13;0.95;;;;;;;;;;5030026;28;20132;-66
2024/02/05 04:54:19;;;;;;;2.35;1.35;;;;;;;;;;5024260;28;20045;-70
2024/02/05 04:56:47;;;;;;;2.33;1.20;;;;;;;;;;5028306;28;20080;-68
2024/02/05 04:59:17;;;;;;;3.33;1.02;;;;;;;;;;5026581;28;20042;-70
2024/02/05 05:01:45;;;;;;;2.88;0.90;;;;;;;;;;5022815;28;20123;-68
2024/02/05 05:04:14;;;;;;;1.58;1.10;;;;;;;;;;5026399;28;20486;-66
2024/02/05 05:06:43;;;;;;;2.55;1.27;;;;;;;;;;5028133;28;20041;-67
2024/02/05 05:09:12;;;;;;;2.45;1.10;;;;;;;;;;5027957;28;20536;-68
2024/02/05 05:11:40;;;;;;;2.78;1.35;;;;;;;;;;5026703;28;20049;-67
2024/02/05 05:14:08;;;;;;;0.82;0.82;;;;;;;;;;5027779;28;20471;-69
2024/02/05 05:16:38;;;;;;;2.10;1.17;;;;;;;;;;5029259;28;20049;-66
2024/02/05 05:19:06;;;;;;;1.45;0.88;;;;;;;;;;5024480;28;20053;-68
2024/02/05 05:21:35;;;;;;;1.35;0.80;;;;;;;;;;5027079;28;20128;-67
2024/02/05 05:24:03;;;;;;;2.22;0.90;;;;;;;;;;5025115;28;20065;-66
2024/02/05 05:26:31;;;;;;;4.68;0.90;;;;;;;;;;5023038;28;20130;-66
2024/02/05 05:29:00;;;;;;;3.78;1.02;;;;;;;;;;5027954;28;20053;-67
2024/02/05 05:31:28;;;;;;;1.35;1.08;;;;;;;;;;5027403;28;20130;-65
2024/02/05 05:33:58;;;;;;;4.97;0.80;;;;;;;;;;5027574;28;20050;-67
2024/02/05 05:36:27;;;;;;;1.95;0.90;;;;;;;;;;5028450;28;20143;-65
2024/02/05 05:38:55;;;;;;;0.80;0.80;;;;;;;;;;5020352;28;20042;-65
2024/02/05 05:41:23;;;;;;;2.55;0.90;;;;;;;;;;5028215;28;20460;-66
2024/02/05 05:43:53;;;;;;;1.50;1.00;;;;;;;;;;5024991;28;20080;-68
2024/02/05 05:46:22;;;;;;;4.07;0.90;;;;;;;;;;5026395;28;20054;-67
2024/02/05 05:48:50;;;;;;;1.35;1.00;;;;;;;;;;5026671;28;20049;-68
2024/02/05 05:51:21;;;;;;;1.33;0.90;;;;;;;;;;5025925;28;20064;-66
2024/02/05 05:53:50;;;;;;;0.98;0.80;;;;;;;;;;5023643;28;20049;-74
2024/02/05 05:56:18;;;;;;;1.20;0.90;;;;;;;;;;5027520;28;20054;-69
2024/02/05 05:58:47;;;;;;;2.20;1.05;;;;;;;;;;5024445;28;20053;-68
2024/02/05 06:01:15;;;;;;;2.10;0.98;;;;;;;;;;5025065;28;20123;-71
2024/02/05 06:03:44;;;;;;;1.05;0.80;;;;;;;;;;5026624;28;20133;-66
2024/02/05 06:06:12;;;;;;;1.70;0.90;;;;;;;;;;5032197;28;20119;-68
2024/02/05 06:08:42;;;;;;;1.98;0.95;;;;;;;;;;5026401;28;20095;-69
2024/02/05 06:11:11;;;;;;;2.47;1.00;;;;;;;;;;5025665;28;20046;-67
2024/02/05 06:13:39;;;;;;;3.67;1.10;;;;;;;;;;5025111;28;20049;-72
2024/02/05 06:16:09;;;;;;;2.03;0.90;;;;;;;;;;5026949;28;20045;-66
2024/02/05 06:18:37;;;;;;;2.00;1.00;;;;;;;;;;5030330;28;20042;-67
2024/02/05 06:21:07;;;;;;;0.88;0.80;;;;;;;;;;5026904;28;20497;-67
2024/02/05 06:23:35;;;;;;;2.65;0.98;;;;;;;;;;5020283;28;20560;-68
2024/02/05 06:26:05;;;;;;;2.65;0.82;;;;;;;;;;5028343;28;20099;-70
2024/02/05 06:28:34;;;;;;;1.13;1.02;;;;;;;;;;5027914;28;20049;-66
2024/02/05 06:31:02;;;;;;;3.28;1.02;;;;;;;;;;5026258;28;20438;-66
2024/02/05 06:33:32;;;;;;;1.45;1.02;;;;;;;;;;5027916;28;20050;-70
2024/02/05 06:36:00;;;;;;;1.33;0.90;;;;;;;;;;5027680;28;20045;-68
2024/02/05 06:38:28;;;;;;;2.30;1.20;;;;;;;;;;5025493;28;20104;-69
2024/02/05 06:40:57;;;;;;;1.95;0.98;;;;;;;;;;5027942;28;20045;-66
2024/02/05 06:43:28;;;;;;;1.13;0.80;;;;;;;;;;5027977;28;20046;-66
2024/02/05 06:45:56;;;;;;;3.83;0.98;;;;;;;;;;5028307;28;20096;-71
2024/02/05 06:48:25;;;;;;;2.25;0.80;;;;;;;;;;5026916;28;20502;-66
2024/02/05 06:50:54;;;;;;;0.95;0.82;;;;;;;;;;5028501;28;20429;-69
2024/02/05 06:53:22;;;;;;;1.17;0.90;;;;;;;;;;5028457;28;20457;-66
2024/02/05 06:55:50;;;;;;;1.65;0.95;;;;;;;;;;5028485;28;20174;-69
2024/02/05 06:58:19;;;;;;;1.27;0.93;;;;;;;;;;5026416;28;20073;-68
2024/02/05 07:00:49;;;;;;;1.55;0.90;;;;;;;;;;5027664;28;20054;-68
2024/02/05 07:03:19;;;;;;;3.92;1.05;;;;;;;;;;5027075;28;20538;-71
2024/02/05 07:05:48;;;;;;;3.08;1.10;;;;;;;;;;5030724;28;20062;-68
2024/02/05 07:08:16;;;;;;;1.63;1.10;;;;;;;;;;5028710;28;20044;-66
2024/02/05 07:10:45;;;;;;;3.33;1.05;;;;;;;;;;5032719;28;20120;-67
2024/02/05 07:13:13;;;;;;;2.20;0.98;;;;;;;;;;5030666;28;20388;-70
2024/02/05 07:15:41;;;;;;;1.20;1.00;;;;;;;;;;5031924;28;20111;-68
2024/02/05 07:18:11;;;;;;;1.33;1.10;;;;;;;;;;5033158;28;20045;-66
2024/02/05 07:20:41;;;;;;;2.33;1.00;;;;;;;;;;5032238;28;20111;-68
2024/02/05 07:23:09;;;;;;;1.48;1.00;;;;;;;;;;5031188;28;20045;-66
2024/02/05 07:25:39;;;;;;;2.22;0.80;;;;;;;;;;5031513;28;20057;-70
2024/02/05 07:28:08;;;;;;;1.20;0.90;;;;;;;;;;5031628;28;20073;-68
2024/02/05 07:30:37;;;;;;;2.55;0.93;;;;;;;;;;5031288;28;20049;-67
2024/02/05 07:33:05;;;;;;;1.95;1.00;;;;;;;;;;5030697;28;20126;-66
2024/02/05 07:35:35;;;;;;;4.43;1.00;;;;;;;;;;5032211;28;20056;-67
2024/02/05 07:38:04;;;;;;;1.17;1.00;;;;;;;;;;5031051;28;20073;-69
2024/02/05 07:40:32;;;;;;;1.67;0.70;;;;;;;;;;5029877;28;20045;-68
2024/02/05 07:43:01;;;;;;;1.17;0.90;;;;;;;;;;5027016;28;20053;-66
2024/02/05 07:45:30;;;;;;;1.23;0.90;;;;;;;;;;5030740;28;20104;-68
2024/02/05 07:48:00;;;;;;;0.75;0.75;;;;;;;;;;5023767;28;20045;-66
2024/02/05 07:50:29;;;;;;;4.25;1.08;;;;;;;;;;5029014;28;20162;-68
2024/02/05 07:52:59;;;;;;;1.15;0.93;;;;;;;;;;5037599;28;20057;-70
2024/02/05 07:55:27;;;;;;;1.02;0.70;;;;;;;;;;5029463;28;20071;-68
2024/02/05 07:57:56;;;;;;;3.33;1.00;;;;;;;;;;5027955;28;20045;-67
2024/02/05 08:00:25;;;;;;;1.15;1.00;;;;;;;;;;5027544;28;20414;-65
2024/02/05 08:02:53;;;;;;;0.95;0.82;;;;;;;;;;5030341;28;20506;-69
2024/02/05 08:05:22;;;;;;;0.93;0.75;;;;;;;;;;5031386;28;20578;-73
2024/02/05 08:07:50;;;;;;;1.75;1.15;;;;;;;;;;5027431;28;20056;-71
2024/02/05 08:10:20;;;;;;;3.40;1.02;;;;;;;;;;5031818;28;20037;-67
2024/02/05 08:12:49;;;;;;;3.25;1.10;;;;;;;;;;5031884;28;20060;-67
2024/02/05 08:15:17;;;;;;;1.42;1.00;;;;;;;;;;5038382;28;20462;-69
2024/02/05 08:17:46;;;;;;;1.38;1.08;;;;;;;;;;5024374;28;20037;-72
2024/02/05 08:20:14;;;;;;;1.52;1.00;;;;;;;;;;5027716;28;20091;-76
2024/02/05 08:22:45;;;;;;;1.85;1.20;;;;;;;;;;5028070;28;20100;-67
2024/02/05 08:25:14;;;;;;;2.10;1.38;;;;;;;;;;5025376;28;20505;-69
2024/02/05 08:27:44;;;;;;;1.42;0.88;;;;;;;;;;5025239;28;20049;-69
2024/02/05 08:30:13;;;;;;;4.28;1.50;;;;;;;;;;5024854;28;20049;-67
2024/02/05 08:32:41;;;;;;;3.38;1.05;;;;;;;;;;5022669;28;20065;-67
2024/02/05 08:35:10;;;;;;;2.65;1.40;;;;;;;;;;5024562;28;20048;-62
2024/02/05 08:37:39;;;;;;;1.23;0.98;;;;;;;;;;5026793;28;20564;-76
2024/02/05 08:40:09;;;;;;;1.10;1.00;;;;;;;;;;5025183;28;20111;-75
2024/02/05 08:42:37;;;;;;;3.28;1.20;;;;;;;;;;5023954;28;20046;-70
2024/02/05 08:45:08;;;;;;;1.65;1.20;;;;;;;;;;5027112;28;20207;-73
2024/02/05 08:47:37;;;;;;;1.33;1.23;;;;;;;;;;5024147;28;20053;-72
2024/02/05 08:50:06;;;;;;;1.33;1.23;;;;;;;;;;5026196;28;20473;-74
2024/02/05 08:52:35;;;;;;;4.20;1.20;;;;;;;;;;5024113;28;20196;-70
2024/02/05 08:55:04;;;;;;;2.42;1.00;;;;;;;;;;5028984;28;20495;-65
2024/02/05 08:57:32;;;;;;;2.65;1.08;;;;;;;;;;5025239;28;20041;-67
2024/02/05 09:00:03;;;;;;;5.88;1.20;;;;;;;;;;5026307;28;20119;-65
2024/02/05 09:02:33;;;;;;;2.05;1.15;;;;;;;;;;5029810;28;20060;-66
2024/02/05 09:05:02;;;;;;;1.35;0.98;;;;;;;;;;5026059;28;20128;-69
2024/02/05 09:07:30;;;;;;;1.58;1.30;;;;;;;;;;5029328;28;20053;-68
2024/02/05 09:09:59;;;;;;;1.02;0.90;;;;;;;;;;5029190;28;20498;-65
2024/02/05 09:12:28;;;;;;;1.23;0.98;;;;;;;;;;5030571;28;20121;-67
2024/02/05 09:14:56;;;;;;;3.17;1.20;;;;;;;;;;5025448;28;20104;-65
2024/02/05 09:17:24;;;;;;;2.63;1.30;;;;;;;;;;5028525;28;20491;-68
2024/02/05 09:19:54;;;;;;;5.20;1.38;;;;;;;;;;5028152;28;20057;-73
2024/02/05 09:22:23;;;;;;;1.42;1.33;;;;;;;;;;5028896;28;20049;-67
2024/02/05 09:24:52;;;;;;;0.90;0.75;;;;;;;;;;5027750;28;20493;-66
2024/02/05 09:27:20;;;;;;;1.95;0.93;;;;;;;;;;5028184;28;20053;-65
2024/02/05 09:29:48;;;;;;;2.35;0.90;;;;;;;;;;5023422;28;20049;-67
2024/02/05 09:32:17;;;;;;;1.88;0.98;;;;;;;;;;5025636;28;20050;-66
2024/02/05 09:34:45;;;;;;;1.67;0.88;;;;;;;;;;5028389;28;20482;-68
2024/02/05 09:37:15;;;;;;;3.65;1.05;;;;;;;;;;5028785;28;20068;-68
2024/02/05 09:39:44;;;;;;;2.55;1.10;;;;;;;;;;5026628;28;20520;-66
2024/02/05 09:42:13;;;;;;;1.00;0.80;;;;;;;;;;5026827;28;20041;-67
2024/02/05 09:44:41;;;;;;;4.40;1.15;;;;;;;;;;5026604;28;20056;-66
2024/02/05 09:47:12;;;;;;;4.90;1.15;;;;;;;;;;5028978;28;20049;-67
2024/02/05 09:49:41;;;;;;;4.65;1.17;;;;;;;;;;5028243;28;20065;-67
2024/02/05 09:52:10;;;;;;;5.20;1.35;;;;;;;;;;5029596;28;20049;-67
2024/02/05 09:54:41;;;;;;;3.30;0.95;;;;;;;;;;5026304;28;20064;-70
2024/02/05 09:57:10;;;;;;;4.78;1.20;;;;;;;;;;5022637;28;20041;-66
2024/02/05 09:59:40;;;;;;;2.28;1.13;;;;;;;;;;5026267;28;20053;-68
2024/02/05 10:02:09;;;;;;;2.08;1.00;;;;;;;;;;5022555;28;20057;-67
2024/02/05 10:04:45;;;;;;;2.67;1.02;;;;;;;;;;5028380;28;20058;-66
2024/02/05 10:07:14;;;;;;;4.90;1.42;;;;;;;;;;5025809;28;20064;-66
2024/02/05 10:09:45;;;;;;;5.53;1.10;;;;;;;;;;5026432;28;20413;-66
2024/02/05 10:12:14;;;;;;;5.00;1.38;;;;;;;;;;5025038;28;20081;-66
2024/02/05 10:14:43;;;;;;;6.78;2.30;;;;;;;;;;5025224;28;20068;-65
2024/02/05 10:17:11;;;;;;;2.05;1.38;;;;;;;;;;5026009;28;20469;-69
2024/02/05 10:19:40;;;;;;;5.57;1.42;;;;;;;;;;5025232;28;20052;-69
2024/02/05 10:22:09;;;;;;;4.40;1.35;;;;;;;;;;5026475;28;20045;-66
2024/02/05 10:24:40;;;;;;;4.45;1.50;;;;;;;;;;5028367;28;20156;-67
2024/02/05 10:27:15;;;;;;;4.00;1.40;;;;;;;;;;5021270;28;20045;-66
2024/02/05 10:29:44;;;;;;;4.82;1.52;;;;;;;;;;5026219;28;20136;-68
2024/02/05 10:32:12;;;;;;;5.55;2.05;;;;;;;;;;5030886;28;20274;-70
2024/02/05 10:34:41;;;;;;;8.30;2.95;;;;;;;;;;5027370;28;20064;-70
2024/02/05 10:37:11;;;;;;;10.10;1.73;;;;;;;;;;5027351;28;20045;-65
2024/02/05 10:39:40;;;;;;;5.78;1.60;;;;;;;;;;5023104;28;20453;-66
2024/02/05 10:42:09;;;;;;;4.88;1.48;;;;;;;;;;5032658;28;20060;-70
2024/02/05 10:44:41;;;;;;;3.05;1.30;;;;;;;;;;5031926;28;20056;-69
2024/02/05 10:47:11;;;;;;;3.58;1.60;;;;;;;;;;5030670;28;20045;-66
2024/02/05 10:49:40;;;;;;;6.60;1.63;;;;;;;;;;5030569;28;20501;-66
2024/02/05 10:52:09;;;;;;;9.77;1.90;;;;;;;;;;5031209;28;20104;-65
2024/02/05 10:54:42;;;;;;;6.63;1.42;;;;;;;;;;5030422;28;20239;-67
2024/02/05 10:57:10;;;;;;;3.22;1.33;;;;;;;;;;5030901;28;20099;-70
2024/02/05 10:59:40;;;;;;;9.27;1.60;;;;;;;;;;5027485;28;20053;-67
2024/02/05 11:02:12;;;;;;;10.02;1.55;;;;;;;;;;5028111;28;20049;-67
2024/02/05 11:04:41;;;;;;;3.63;1.38;;;;;;;;;;5029479;28;20045;-65
2024/02/05 11:07:11;;;;;;;5.88;1.38;;;;;;;;;;5032001;28;20045;-69
2024/02/05 11:09:40;;;;;;;4.03;1.83;;;;;;;;;;5029678;28;20095;-71
2024/02/05 11:12:09;;;;;;;3.45;1.45;;;;;;;;;;5030315;28;20049;-66
2024/02/05 11:14:39;;;;;;;6.63;1.40;;;;;;;;;;5030660;28;20054;-69
2024/02/05 11:17:09;;;;;;;4.47;1.63;;;;;;;;;;5030786;28;20424;-67
2024/02/05 11:19:38;;;;;;;4.97;1.50;;;;;;;;;;5023362;28;20057;-68
2024/02/05 11:22:08;;;;;;;3.20;1.10;;;;;;;;;;5020732;28;20333;-67
2024/02/05 11:24:36;;;;;;;1.88;1.10;;;;;;;;;;5030693;28;20065;-66
2024/02/05 11:27:06;;;;;;;3.90;1.17;;;;;;;;;;5031945;28;20547;-68
2024/02/05 11:29:36;;;;;;;6.03;1.30;;;;;;;;;;5031138;28;20068;-67
2024/02/05 11:32:04;;;;;;;7.13;1.70;;;;;;;;;;5022634;28;20061;-71
2024/02/05 11:34:35;;;;;;;2.92;1.30;;;;;;;;;;5030259;28;20159;-67
2024/02/05 11:37:10;;;;;;;2.58;0.98;;;;;;;;;;5031226;28;20128;-66
2024/02/05 11:39:44;;;;;;;2.65;1.63;;;;;;;;;;5029157;28;20136;-71
2024/02/05 11:42:14;;;;;;;4.63;1.42;;;;;;;;;;5030626;28;20500;-69
2024/02/05 11:44:42;;;;;;;6.25;1.48;;;;;;;;;;5029073;28;20558;-66
2024/02/05 11:47:12;;;;;;;5.38;1.25;;;;;;;;;;5030041;28;20049;-70
2024/02/05 11:49:43;;;;;;;8.23;1.10;;;;;;;;;;5030983;28;20072;-69
2024/02/05 11:52:14;;;;;;;5.30;1.50;;;;;;;;;;5031699;28;20041;-66
2024/02/05 11:54:43;;;;;;;4.97;1.33;;;;;;;;;;5030846;28;20053;-68
2024/02/05 11:57:12;;;;;;;5.65;1.13;;;;;;;;;;5031572;28;20050;-70
2024/02/05 11:59:40;;;;;;;3.15;1.10;;;;;;;;;;5030587;28;20057;-67
2024/02/05 12:02:09;;;;;;;3.78;0.90;;;;;;;;;;5031290;28;20486;-66
2024/02/05 12:04:38;;;;;;;8.55;1.48;;;;;;;;;;5023157;28;20065;-67
2024/02/05 12:07:08;;;;;;;4.55;0.95;;;;;;;;;;5029416;28;20061;-69
2024/02/05 12:09:37;;;;;;;6.25;1.63;;;;;;;;;;5028060;28;20041;-69
2024/02/05 12:12:06;;;;;;;3.08;1.30;;;;;;;;;;5029550;28;20100;-69
2024/02/05 12:14:38;;;;;;;8.00;1.38;;;;;;;;;;5022673;28;20049;-66
2024/02/05 12:17:13;;;;;;;3.20;1.08;;;;;;;;;;5028210;28;20164;-66
2024/02/05 12:19:41;;;;;;;2.67;1.02;;;;;;;;;;5027858;28;20122;-68
2024/02/05 12:22:12;;;;;;;2.53;1.00;;;;;;;;;;5025912;28;20041;-68
2024/02/05 12:24:41;;;;;;;4.75;1.20;;;;;;;;;;5027717;28;20133;-67
2024/02/05 12:27:09;;;;;;;3.55;1.30;;;;;;;;;;5028993;28;20046;-66
2024/02/05 12:29:38;;;;;;;7.20;1.48;;;;;;;;;;5032388;28;20053;-68
2024/02/05 12:32:07;;;;;;;7.15;1.02;;;;;;;;;;5027212;28;20065;-68
2024/02/05 12:34:36;;;;;;;3.47;1.25;;;;;;;;;;5027998;28;20053;-71
2024/02/05 12:37:06;;;;;;;2.55;0.88;;;;;;;;;;5028148;28;20162;-67
2024/02/05 12:39:37;;;;;;;4.43;1.30;;;;;;;;;;5029974;28;20513;-65
2024/02/05 12:42:05;;;;;;;7.95;1.30;;;;;;;;;;5028011;28;20069;-67
2024/02/05 12:44:34;;;;;;;2.28;1.50;;;;;;;;;;5027719;28;20046;-71
2024/02/05 12:47:12;;;;;;;6.25;1.50;;;;;;;;;;5026224;28;20062;-65
2024/02/05 12:49:40;;;;;;;3.50;1.40;;;;;;;;;;5027494;28;20121;-67
2024/02/05 12:52:09;;;;;;;5.38;1.00;;;;;;;;;;5029973;28;20060;-66
2024/02/05 12:54:39;;;;;;;4.70;1.08;;;;;;;;;;5027874;28;20068;-67
2024/02/05 12:57:08;;;;;;;5.75;1.38;;;;;;;;;;5029009;28;20076;-69
2024/02/05 12:59:37;;;;;;;2.13;1.10;;;;;;;;;;5024570;28;20569;-71
2024/02/05 13:02:06;;;;;;;1.25;0.80;;;;;;;;;;5025959;28;20038;-66
2024/02/05 13:04:35;;;;;;;5.07;1.00;;;;;;;;;;5029405;28;20049;-66
2024/02/05 13:07:04;;;;;;;4.55;1.20;;;;;;;;;;5028774;28;20126;-66
2024/02/05 13:09:42;;;;;;;2.08;1.17;;;;;;;;;;5026215;28;20053;-68
2024/02/05 13:12:12;;;;;;;6.10;1.33;;;;;;;;;;5019576;28;20037;-69
2024/02/05 13:14:40;;;;;;;4.40;1.27;;;;;;;;;;5029286;28;20042;-66
2024/02/05 13:17:09;;;;;;;5.03;1.23;;;;;;;;;;5028636;28;20060;-67
2024/02/05 13:19:37;;;;;;;5.75;1.33;;;;;;;;;;5029700;28;20057;-66
2024/02/05 13:22:06;;;;;;;5.78;1.02;;;;;;;;;;5028081;28;20041;-67
2024/02/05 13:24:36;;;;;;;5.55;1.48;;;;;;;;;;5028089;28;20071;-70
2024/02/05 13:27:06;;;;;;;6.22;1.23;;;;;;;;;;5028439;28;20136;-65
2024/02/05 13:29:35;;;;;;;3.13;1.25;;;;;;;;;;5027431;28;20068;-66
2024/02/05 13:32:03;;;;;;;4.68;1.58;;;;;;;;;;5029201;28;20419;-67
2024/02/05 13:34:33;;;;;;;2.53;1.40;;;;;;;;;;5029831;28;20048;-66
2024/02/05 13:37:01;;;;;;;4.95;1.85;;;;;;;;;;5031246;28;20044;-66
2024/02/05 13:39:31;;;;;;;3.55;1.05;;;;;;;;;;5026810;28;20450;-66
2024/02/05 13:42:03;;;;;;;3.58;1.10;;;;;;;;;;5027447;28;20041;-67
2024/02/05 13:44:33;;;;;;;5.93;1.30;;;;;;;;;;5029782;28;20058;-66
2024/02/05 13:47:02;;;;;;;3.72;1.17;;;;;;;;;;5031034;28;20115;-66
2024/02/05 13:49:30;;;;;;;2.85;1.10;;;;;;;;;;5032876;28;20104;-69
2024/02/05 13:51:58;;;;;;;3.25;1.15;;;;;;;;;;5023371;28;20073;-67
2024/02/05 13:54:27;;;;;;;7.70;1.48;;;;;;;;;;5026576;28;20050;-67
2024/02/05 13:56:57;;;;;;;4.22;1.42;;;;;;;;;;5027858;28;20049;-66
2024/02/05 13:59:25;;;;;;;4.78;1.08;;;;;;;;;;5025138;28;20063;-66
2024/02/05 14:01:55;;;;;;;6.65;1.48;;;;;;;;;;5029004;28;20056;-69
2024/02/05 14:04:24;;;;;;;6.95;1.40;;;;;;;;;;5029093;28;20046;-67
2024/02/05 14:06:53;;;;;;;5.47;1.52;;;;;;;;;;5027654;28;20068;-68
2024/02/05 14:09:21;;;;;;;4.15;1.20;;;;;;;;;;5030329;28;20556;-67
2024/02/05 14:11:50;;;;;;;4.50;1.15;;;;;;;;;;5029616;28;20467;-66
2024/02/05 14:14:18;;;;;;;5.05;1.17;;;;;;;;;;5031016;28;20052;-66
2024/02/05 14:16:47;;;;;;;4.78;1.00;;;;;;;;;;5026755;28;20045;-66
2024/02/05 14:19:17;;;;;;;5.50;1.75;;;;;;;;;;5024425;28;20450;-66
2024/02/05 14:21:45;;;;;;;4.88;1.35;;;;;;;;;;5026853;28;20556;-69
2024/02/05 14:24:14;;;;;;;4.10;1.52;;;;;;;;;;5020947;28;20136;-67
2024/02/05 14:26:43;;;;;;;7.35;1.33;;;;;;;;;;5020781;28;20498;-67
2024/02/05 14:29:11;;;;;;;3.05;1.33;;;;;;;;;;5019656;28;20108;-66
2024/02/05 14:31:39;;;;;;;5.78;1.10;;;;;;;;;;5027076;28;20628;-65
2024/02/05 14:34:08;;;;;;;5.88;1.33;;;;;;;;;;5021708;28;20100;-69
2024/02/05 14:36:39;;;;;;;4.15;0.93;;;;;;;;;;5026737;28;20061;-66
2024/02/05 14:39:08;;;;;;;2.28;1.02;;;;;;;;;;5027810;28;20050;-67
2024/02/05 14:41:36;;;;;;;4.68;1.30;;;;;;;;;;5027649;28;20046;-66
2024/02/05 14:44:05;;;;;;;3.80;0.98;;;;;;;;;;5034193;28;20048;-68
2024/02/05 14:46:33;;;;;;;5.75;1.25;;;;;;;;;;5026161;28;20053;-68
2024/02/05 14:49:02;;;;;;;6.03;1.05;;;;;;;;;;5026767;28;20045;-67
2024/02/05 14:51:32;;;;;;;6.88;1.40;;;;;;;;;;5027953;28;20041;-67
2024/02/05 14:54:02;;;;;;;5.95;1.27;;;;;;;;;;5022456;28;20045;-66